Hovedside
METAR-TAF:

METAR-TAF

Lufthavner :

Kunming Changshui internasjonale lufthavn

Kunming, Kina

breddegrad: 25-01N, lengdegrad: 102-41E, høyde over havet: 1892 m

Gjeldene værobservasjon

Denne rapporten ble laget for 27 minutter siden, klokken 20:00 UTC
Vind 10 kt fra Sørvest
Temperatur 11°C
Luftfuktighet 100%
Trykk 1023 hPa
Sikt: 3500 m
Spredte skyer i en høyde av 300 ft
Brutte skyer i en høyde av 3300 ft
dis

METAR: ZPPP 142000Z 22005MPS 3500 R22/P2000 R21/1300D BR SCT003 BKN033 11/11 Q1023 NOSIG

Tid: 04:27 (20:27 UTC)

Varsel

Denne rapporten ble laget for 7 timer og 22 minutter siden, klokken 13:05 UTC
Varsel gyldig fra 14. klokken 18 UTC til 15. klokken 18 UTC
Vind 8 kt fra Sørvest
Sikt 10 km eller mer
Spredte skyer i en høyde av 2000 ft

TAF: ZPPP 141305Z 1418/1518 23004MPS 9999 SCT020 TX19/1508Z TN07/1423Z

Værobservasjoner og værvarsel for over 4000 flyplasser (METAR- og TAF-rapporter).

Tilgjengelige stasjoner er representert av de røde og gule prikkene på kartet.

Hold musepekeren over prikken for å se navnet på stasjonen.

Klikk så for å se værobservasjoner og -varsler.

For å forandre kartet kan du klikke på den grønne knappen med svart kryss for å zoome inn, på den grønne knappen med strek for å zoome ut, eller på de grønne pilene for å se tilstøtende kart.


METAR-TAF: